This is the latest recevied weather packets stored in our database for station/object IZ4MEH-10. If no packets are shown the sender has not sent any weather packets the latest 10 day(s).
| Time | Temp. | Humidity | Pressure | Rain* | Wind** | Luminosity | Snow |
|---|---|---|---|---|---|---|---|
| 1777671517 | 13.33° C | 50% | 1024.2 hPa | - | - | - | - |
| 1777669717 | 13.89° C | 46% | 1024.2 hPa | - | - | - | - |
| 1777667915 | 15° C | 41% | 1024.1 hPa | - | - | - | - |
| 1777666114 | 15.56° C | 37% | 1023.8 hPa | - | - | - | - |
| 1777664313 | 16.11° C | 39% | 1023.6 hPa | - | - | - | - |
| 1777662511 | 16.67° C | 36% | 1023.3 hPa | - | - | - | - |
| 1777660710 | 17.78° C | 30% | 1023.1 hPa | - | - | - | - |
| 1777658909 | 18.33° C | 29% | 1023 hPa | - | - | - | - |
| 1777657107 | 19.44° C | 25% | 1022.9 hPa | - | - | - | - |
| 1777655306 | 19.44° C | 24% | 1022.9 hPa | - | - | - | - |
| 1777653505 | 20° C | 23% | 1023 hPa | - | - | - | - |
| 1777651704 | 20° C | 24% | 1023.1 hPa | - | - | - | - |
| 1777649903 | 20.56° C | 23% | 1023.3 hPa | - | - | - | - |
| 1777648102 | 20.56° C | 24% | 1023.4 hPa | - | - | - | - |
| 1777646300 | 20.56° C | 24% | 1023.7 hPa | - | - | - | - |
| 1777644498 | 20.56° C | 25% | 1023.9 hPa | - | - | - | - |
| 1777642697 | 20.56° C | 26% | 1024.3 hPa | - | - | - | - |
| 1777640896 | 20.56° C | 26% | 1024.5 hPa | - | - | - | - |
| 1777639095 | 21.11° C | 27% | 1024.8 hPa | - | - | - | - |
| 1777637293 | 20.56° C | 28% | 1025.1 hPa | - | - | - | - |
| 1777635492 | 21.11° C | 28% | 1025.4 hPa | - | - | - | - |
| 1777633691 | 21.11° C | 28% | 1025.5 hPa | - | - | - | - |
| 1777631890 | 27.78° C | 19% | 1025.9 hPa | - | - | - | - |
| 1777630089 | 28.33° C | 19% | 1026.1 hPa | - | - | - | - |
| 1777628288 | 29.44° C | 20% | 1026.2 hPa | - | - | - | - |
* Rain since midnight (hover to see other rain measurements)
** Current wind speed in m/s (hover to see current wind gust speed)